EGOV

Anglesey Airport

Angelsey, United Kingdom
METAR EGOV 222050Z AUTO 23015KT 9999 FEW040/// BKN050/// 10/08 Q1009
Observed Flight Rules
Apr-22 @ 20:50 UTC (an hour ago) Visual Flight Rules
Wind Visibility Clouds
230° at 15 knots 10,000+ meters
  • Few at 4,000' AGL
  • Broken at 5,000' AGL
Temperatures Readings
Current 10°C / 50°F
Dewpoint 8°C / 46°F
Humidity 88%
Altimeter 29.79" Hg
Pressure 1009 hPa
Elevation 11
METAR EGOV 222050Z AUTO 23015KT 9999 FEW040/// BKN050/// 10/08 Q1009
Observed Flight Rules
Apr-22 @ 20:50 UTC
(an hour ago)
VFR
Wind Visibility
230° at 15 knots 10,000+ meters
Clouds
  • Few at 4,000' AGL
  • Broken at 5,000' AGL
Temperature Dewpoint
10°C / 50°F 8°C / 46°F
Humidity Altimeter Pressure
88% 29.79" Hg 1009 hPa